Time;durP1;ratioP1;P1;durP2;ratioP2;P2;SDS_P1;SDS_P2;PMS_P1;PMS_P2;Temp;Humidity;BMP_temperature;BMP_pressure;BME280_temperature;BME280_humidity;BME280_pressure;Samples;Min_cycle;Max_cycle;Signal;HPM_P1;HPM_P2
2023/02/12 00:03:42;;;;;;;75.43;36.83;;;8.90;1.00;;;;;;6108655;23;20231;-84
2023/02/12 00:06:22;;;;;;;68.83;35.10;;;8.90;1.00;;;;;;6127722;23;20639;-86
2023/02/12 00:09:14;;;;;;;70.63;35.90;;;8.90;1.00;;;;;;6128894;23;20789;-85
2023/02/12 00:16:12;;;;;;;75.80;36.55;;;8.90;1.00;;;;;;6212031;23;20443;-83
2023/02/12 00:18:46;;;;;;;67.80;34.92;;;8.90;1.00;;;;;;6316766;22;20327;-84
2023/02/12 00:28:50;;;;;;;74.50;36.60;;;8.90;1.00;;;;;;6327763;22;20636;-85
2023/02/12 00:32:08;;;;;;;;;;;;;;;;;;;;;
2023/02/12 00:38:15;;;;;;;73.93;36.30;;;8.90;1.00;;;;;;6317927;22;20445;-84
2023/02/12 00:45:15;;;;;;;77.63;37.63;;;8.90;1.00;;;;;;6250170;23;20164;-84
2023/02/12 00:48:11;;;;;;;75.03;35.03;;;8.90;1.00;;;;;;6308764;22;20159;-84
2023/02/12 00:51:15;;;;;;;69.28;35.35;;;8.90;1.00;;;;;;6343726;22;20158;-84
2023/02/12 00:54:38;;;;;;;;;;;;;;;;;;;;;
2023/02/12 00:57:39;;;;;;;;;;;;;;;;;;;;;
2023/02/12 01:00:55;;;;;;;;;;;;;;;;;;;;;
2023/02/12 01:04:01;;;;;;;81.40;36.80;;;8.90;1.00;;;;;;6343862;22;20405;-83
2023/02/12 01:07:05;;;;;;;71.53;36.13;;;8.90;1.00;;;;;;6315888;22;20607;-83
2023/02/12 01:14:27;;;;;;;;;;;;;;;;;;;;;
2023/02/12 01:17:07;;;;;;;79.78;37.53;;;8.90;1.00;;;;;;6150853;23;20189;-86
2023/02/12 01:23:41;;;;;;;72.30;36.20;;;8.90;1.00;;;;;;6122694;23;20155;-83
2023/02/12 01:26:34;;;;;;;69.73;35.87;;;8.90;1.00;;;;;;6047528;23;20429;-84
2023/02/12 01:29:46;;;;;;;80.03;37.78;;;8.90;1.00;;;;;;6176140;23;20396;-84
2023/02/12 01:36:11;;;;;;;;;;;;;;;;;;;;;
2023/02/12 01:38:50;;;;;;;;;;;;;;;;;;;;;
2023/02/12 01:42:18;;;;;;;65.65;34.85;;;8.90;99.90;;;;;;6190249;23;20181;-84
2023/02/12 01:45:34;;;;;;;;;;;;;;;;;;;;;
2023/02/12 01:48:50;;;;;;;73.47;37.97;;;8.90;99.90;;;;;;6346298;22;20178;-84
2023/02/12 01:52:18;;;;;;;64.83;34.87;;;9.00;99.90;;;;;;6315900;22;20393;-84
2023/02/12 01:58:25;;;;;;;;;;;;;;;;;;;;;
2023/02/12 02:01:52;;;;;;;65.45;33.17;;;9.00;99.90;;;;;;6345272;22;20182;-84
2023/02/12 02:05:08;;;;;;;;;;;;;;;;;;;;;
2023/02/12 02:17:35;;;;;;;66.13;35.33;;;8.90;99.90;;;;;;6345387;22;20914;-84
2023/02/12 02:30:49;;;;;;;63.67;33.33;;;8.90;99.90;;;;;;6346135;22;20151;-84
2023/02/12 02:34:03;;;;;;;64.25;34.40;;;8.90;99.90;;;;;;6316803;22;20215;-84
2023/02/12 02:36:59;;;;;;;61.17;34.13;;;8.90;99.90;;;;;;6318018;22;20175;-84
2023/02/12 02:39:33;;;;;;;71.32;35.38;;;8.90;99.90;;;;;;6345943;22;20203;-84
2023/02/12 02:49:38;;;;;;;70.70;35.67;;;8.80;99.90;;;;;;6227366;23;20165;-84
2023/02/12 02:52:48;;;;;;;69.45;35.38;;;8.80;99.90;;;;;;6248843;22;20167;-86
2023/02/12 02:55:46;;;;;;;70.10;34.63;;;8.80;99.90;;;;;;6172173;23;20586;-84
2023/02/12 03:03:08;;;;;;;61.83;32.53;;;8.70;99.90;;;;;;6288367;22;20186;-84
2023/02/12 03:25:13;;;;;;;;;;;;;;;;;;;;;
2023/02/12 03:27:59;;;;;;;64.40;33.30;;;8.60;99.90;;;;;;6255634;23;20188;-83
2023/02/12 03:38:52;;;;;;;;;;;;;;;;;;;;;
2023/02/12 03:42:13;;;;;;;67.28;33.53;;;8.70;99.90;;;;;;6213796;23;20182;-84
2023/02/12 03:52:26;;;;;;;61.42;33.33;;;8.60;99.90;;;;;;6188408;23;20166;-85
2023/02/12 03:55:09;;;;;;;71.05;33.80;;;8.70;99.90;;;;;;6116638;23;20162;-84
2023/02/12 04:07:52;;;;;;;64.73;33.17;;;8.60;99.90;;;;;;6369506;22;20202;-84
2023/02/12 04:10:52;;;;;;;68.18;33.65;;;8.60;99.90;;;;;;6193547;23;20427;-85
2023/02/12 04:17:40;;;;;;;66.18;33.88;;;8.60;99.90;;;;;;6278782;22;20203;-84
2023/02/12 04:40:58;;;;;;;68.88;33.90;;;8.60;99.90;;;;;;6378182;22;20884;-84
2023/02/12 04:43:39;;;;;;;62.27;33.40;;;8.70;99.90;;;;;;6376690;22;20150;-85
2023/02/12 04:54:33;;;;;;;72.88;35.35;;;8.60;99.90;;;;;;6282570;22;20183;-85
2023/02/12 04:57:30;;;;;;;69.13;35.45;;;8.60;99.90;;;;;;6274970;22;20324;-84
2023/02/12 05:00:19;;;;;;;;;;;;;;;;;;;;;
2023/02/12 05:02:48;;;;;;;65.70;35.05;;;8.70;99.90;;;;;;6284585;22;20180;-84
2023/02/12 05:08:56;;;;;;;61.65;33.85;;;8.70;99.90;;;;;;6161983;23;20163;-84
2023/02/12 05:15:04;;;;;;;69.97;35.58;;;8.70;99.90;;;;;;6144845;23;20179;-83
2023/02/12 05:18:30;;;;;;;74.35;38.15;;;8.70;99.90;;;;;;6162251;23;20183;-84
2023/02/12 05:21:30;;;;;;;;;;;;;;;;;;;;;
2023/02/12 05:31:24;;;;;;;73.18;37.97;;;8.70;99.90;;;;;;6207711;22;20198;-85
2023/02/12 05:38:01;;;;;;;67.05;35.03;;;8.60;99.90;;;;;;6270970;22;20206;-85
2023/02/12 05:41:05;;;;;;;69.93;34.83;;;8.60;99.90;;;;;;6282246;22;20179;-85
2023/02/12 05:54:40;;;;;;;71.28;36.35;;;8.60;99.90;;;;;;6045632;23;20162;-84
2023/02/12 05:57:23;;;;;;;73.07;34.65;;;8.60;99.90;;;;;;6171690;22;20199;-85
2023/02/12 06:00:10;;;;;;;73.78;37.13;;;8.60;99.90;;;;;;6379837;22;20213;-85
2023/02/12 06:03:25;;;;;;;68.53;35.15;;;8.60;99.90;;;;;;6379980;22;20134;-85
2023/02/12 06:10:20;;;;;;;69.30;35.00;;;8.60;99.90;;;;;;6220506;23;20376;-84
2023/02/12 06:13:04;;;;;;;72.23;34.30;;;8.60;99.90;;;;;;6218459;22;20390;-84
2023/02/12 06:16:26;;;;;;;70.35;33.25;;;8.60;99.90;;;;;;6280793;22;20412;-85
2023/02/12 06:22:38;;;;;;;62.47;34.50;;;8.60;99.90;;;;;;6048440;23;20367;-85
2023/02/12 06:36:23;;;;;;;66.65;32.20;;;8.60;99.90;;;;;;6050760;23;20197;-85
2023/02/12 06:39:00;;;;;;;70.10;35.55;;;8.50;99.90;;;;;;6117760;23;20223;-85
2023/02/12 06:41:44;;;;;;;79.63;37.65;;;8.50;99.90;;;;;;6220841;23;20215;-85
2023/02/12 06:47:54;;;;;;;61.63;32.88;;;8.50;99.90;;;;;;6376942;22;20151;-86
2023/02/12 06:51:16;;;;;;;71.45;34.28;;;8.60;99.90;;;;;;6321182;22;20146;-85
2023/02/12 06:55:09;;;;;;;;;;;;;;;;;;;;;
2023/02/12 06:58:08;;;;;;;64.82;32.65;;;8.50;99.90;;;;;;6317769;22;20190;-85
2023/02/12 07:01:30;;;;;;;;;;;;;;;;;;;;;
2023/02/12 07:07:15;;;;;;;;;;;;;;;;;;;;;
2023/02/12 07:10:24;;;;;;;69.53;34.43;;;8.70;99.90;;;;;;6377814;22;20185;-84
2023/02/12 07:13:36;;;;;;;;;;;;;;;;;;;;;
2023/02/12 07:22:42;;;;;;;57.13;31.95;;;8.80;99.90;;;;;;6247030;23;20169;-84
2023/02/12 07:25:27;;;;;;;58.83;32.97;;;8.90;99.90;;;;;;6293045;22;20343;-85
2023/02/12 07:28:15;;;;;;;64.97;32.63;;;8.90;99.90;;;;;;6409722;22;20134;-84
2023/02/12 07:30:56;;;;;;;62.13;33.05;;;9.00;99.90;;;;;;6381499;22;20236;-84
2023/02/12 07:33:55;;;;;;;61.40;33.17;;;9.00;99.90;;;;;;6380914;22;20150;-83
2023/02/12 07:37:02;;;;;;;59.80;33.03;;;9.00;99.90;;;;;;6356482;22;20487;-85
2023/02/12 07:39:46;;;;;;;58.42;32.15;;;9.00;99.90;;;;;;6405433;22;20218;-85
2023/02/12 07:42:31;;;;;;;63.88;32.85;;;9.10;99.90;;;;;;6409664;22;20207;-84
2023/02/12 07:45:15;;;;;;;61.72;33.95;;;9.10;99.90;;;;;;6381700;22;20628;-84
2023/02/12 07:55:02;;;;;;;;;;;;;;;;;;;;;
2023/02/12 07:58:01;;;;;;;;;;;;;;;;;;;;;
2023/02/12 08:03:40;;;;;;;62.00;33.30;;;9.40;49.90;;;;;;6189886;23;20795;-83
2023/02/12 08:09:50;;;;;;;64.72;34.40;;;9.50;1.00;;;;;;6204783;23;20460;-83
2023/02/12 08:12:32;;;;;;;67.37;35.60;;;9.50;1.00;;;;;;6345704;22;20695;-84
2023/02/12 08:18:41;;;;;;;60.77;32.70;;;9.60;1.00;;;;;;6409893;22;20482;-84
2023/02/12 08:25:58;;;;;;;;;;;;;;;;;;;;;
2023/02/12 08:28:56;;;;;;;58.70;31.20;;;9.80;1.00;;;;;;6370399;22;20403;-83
2023/02/12 08:31:43;;;;;;;51.47;29.67;;;9.80;99.90;;;;;;6409083;22;20460;-84
2023/02/12 08:35:03;;;;;;;60.57;31.50;;;9.90;99.90;;;;;;6367016;22;20386;-83
2023/02/12 08:38:22;;;;;;;56.90;30.97;;;9.90;99.90;;;;;;6405864;22;20809;-83
2023/02/12 08:41:12;;;;;;;62.13;34.10;;;10.00;99.90;;;;;;6334643;22;20437;-83
2023/02/12 08:44:01;;;;;;;59.43;32.30;;;10.10;1.00;;;;;;6346140;22;20435;-85
2023/02/12 08:46:59;;;;;;;;;;;;;;;;;;;;;
2023/02/12 08:49:30;;;;;;;61.00;32.97;;;10.30;1.00;;;;;;6408045;22;20403;-84
2023/02/12 08:52:00;;;;;;;61.67;34.13;;;10.40;1.00;;;;;;6378592;22;20411;-84
2023/02/12 08:54:35;;;;;;;66.93;34.03;;;10.50;99.90;;;;;;6407435;22;20714;-83
2023/02/12 08:57:02;;;;;;;55.10;33.33;;;10.60;99.90;;;;;;6380234;22;20423;-83
2023/02/12 08:59:30;;;;;;;57.23;33.40;;;10.70;99.90;;;;;;6407929;22;20363;-84
2023/02/12 09:01:59;;;;;;;56.70;32.67;;;10.80;1.00;;;;;;6381164;22;20379;-84
2023/02/12 09:04:28;;;;;;;56.57;33.17;;;10.80;1.00;;;;;;6412171;22;20368;-84
2023/02/12 09:06:56;;;;;;;61.20;33.67;;;10.90;99.90;;;;;;6383119;22;20954;-84
2023/02/12 09:09:22;;;;;;;62.40;34.17;;;10.90;99.90;;;;;;6382287;22;20387;-84
2023/02/12 09:11:48;;;;;;;63.17;35.30;;;11.00;1.00;;;;;;6409383;22;20395;-84
2023/02/12 09:14:32;;;;;;;58.40;32.90;;;11.00;1.00;;;;;;6382657;22;20226;-84
2023/02/12 09:17:15;;;;;;;61.20;35.00;;;11.00;1.00;;;;;;6410968;22;20410;-84
2023/02/12 09:19:41;;;;;;;54.90;32.27;;;11.00;99.90;;;;;;6380117;22;20376;-84
2023/02/12 09:22:06;;;;;;;56.00;30.73;;;11.00;99.90;;;;;;6381449;22;20914;-84
2023/02/12 09:24:48;;;;;;;65.77;33.90;;;11.00;99.90;;;;;;6381891;22;20214;-85
2023/02/12 09:27:33;;;;;;;67.10;34.47;;;11.10;1.00;;;;;;6381821;22;20150;-84
2023/02/12 09:30:08;;;;;;;63.07;34.10;;;11.10;1.00;;;;;;6412429;22;20354;-84
2023/02/12 09:32:33;;;;;;;67.10;36.10;;;11.10;1.00;;;;;;6384313;22;20465;-84
2023/02/12 09:34:59;;;;;;;58.40;33.47;;;11.20;1.00;;;;;;6381984;22;20411;-83
2023/02/12 09:40:42;;;;;;;66.43;35.37;;;11.30;99.90;;;;;;6360474;22;20160;-84
2023/02/12 09:43:18;;;;;;;72.50;36.00;;;11.40;99.90;;;;;;6342412;22;20383;-83
2023/02/12 09:45:51;;;;;;;62.20;35.83;;;11.40;82.00;;;;;;6410495;22;20391;-84
2023/02/12 09:48:20;;;;;;;61.83;35.60;;;11.50;1.00;;;;;;6409047;22;20359;-84
2023/02/12 09:50:58;;;;;;;64.07;34.60;;;11.50;1.00;;;;;;6377565;22;20387;-84
2023/02/12 09:53:29;;;;;;;73.27;36.17;;;11.60;99.90;;;;;;6409608;22;20854;-84
2023/02/12 09:56:18;;;;;;;69.97;38.93;;;11.60;15.40;;;;;;6373371;22;20403;-84
2023/02/12 09:58:51;;;;;;;64.70;36.73;;;11.60;99.60;;;;;;6375420;22;20419;-83
2023/02/12 10:01:29;;;;;;;63.13;36.20;;;11.60;99.90;;;;;;6379496;22;20378;-83
2023/02/12 10:04:05;;;;;;;64.77;36.93;;;11.70;99.90;;;;;;6379327;22;20378;-83
2023/02/12 10:06:44;;;;;;;65.43;36.53;;;11.80;99.90;;;;;;6408637;22;20387;-84
2023/02/12 10:09:10;;;;;;;65.37;37.27;;;11.90;1.00;;;;;;6380395;22;20371;-84
2023/02/12 10:11:51;;;;;;;60.57;35.83;;;12.00;1.00;;;;;;6387343;22;20388;-83
2023/02/12 10:14:29;;;;;;;59.13;35.63;;;12.00;1.00;;;;;;6414600;22;20122;-83
2023/02/12 10:17:31;;;;;;;59.30;36.43;;;12.10;1.00;;;;;;6409894;22;20421;-84
2023/02/12 10:20:21;;;;;;;64.90;36.47;;;12.20;99.90;;;;;;6410583;22;20355;-84
2023/02/12 10:23:27;;;;;;;63.20;35.43;;;12.30;99.90;;;;;;6379771;22;20420;-84
2023/02/12 10:26:05;;;;;;;64.33;36.73;;;12.30;99.90;;;;;;6380431;22;20397;-84
2023/02/12 10:28:38;;;;;;;66.33;35.50;;;12.30;20.00;;;;;;6410607;22;20684;-84
2023/02/12 10:31:15;;;;;;;60.63;35.57;;;12.30;49.10;;;;;;6380806;22;21180;-84
2023/02/12 10:33:49;;;;;;;61.73;36.20;;;12.30;1.00;;;;;;6381887;22;20454;-84
2023/02/12 10:36:25;;;;;;;62.37;36.03;;;12.30;1.00;;;;;;6381609;22;20396;-85
2023/02/12 10:39:04;;;;;;;60.70;35.40;;;12.20;1.00;;;;;;6408279;22;20432;-83
2023/02/12 10:41:58;;;;;;;63.90;36.17;;;12.30;1.00;;;;;;6405695;22;20818;-83
2023/02/12 10:44:32;;;;;;;61.93;35.13;;;12.30;1.00;;;;;;6405934;22;20371;-83
2023/02/12 10:46:58;;;;;;;56.10;34.10;;;12.30;1.00;;;;;;6406894;22;20398;-83
2023/02/12 10:49:24;;;;;;;59.53;34.37;;;12.30;1.00;;;;;;6377843;22;20402;-83
2023/02/12 10:52:13;;;;;;;58.80;33.13;;;12.40;1.00;;;;;;6406890;22;20146;-84
2023/02/12 10:54:49;;;;;;;57.03;32.13;;;12.40;1.00;;;;;;6408638;22;20608;-84
2023/02/12 10:57:30;;;;;;;54.00;34.17;;;12.40;1.00;;;;;;6379261;22;20429;-84
2023/02/12 11:00:17;;;;;;;60.20;34.67;;;12.40;99.90;;;;;;6406758;22;20359;-84
2023/02/12 11:03:10;;;;;;;56.93;32.30;;;12.40;99.90;;;;;;6379703;22;20383;-84
2023/02/12 11:05:44;;;;;;;61.63;35.50;;;12.40;99.90;;;;;;6380889;22;20395;-85
2023/02/12 11:08:30;;;;;;;61.43;34.93;;;12.40;99.90;;;;;;6383434;22;20406;-84
2023/02/12 11:11:04;;;;;;;58.37;32.83;;;12.50;99.90;;;;;;6410928;22;20356;-85
2023/02/12 11:13:30;;;;;;;55.60;33.50;;;12.50;99.90;;;;;;6384563;22;20397;-85
2023/02/12 11:15:56;;;;;;;66.50;34.03;;;12.50;99.90;;;;;;6382236;22;20399;-85
2023/02/12 11:18:27;;;;;;;64.13;34.33;;;12.50;99.90;;;;;;6383157;22;20500;-84
2023/02/12 11:20:57;;;;;;;59.67;32.17;;;12.60;99.90;;;;;;6413024;22;20193;-85
2023/02/12 11:23:29;;;;;;;64.00;33.30;;;12.60;99.90;;;;;;6382109;22;20873;-85
2023/02/12 11:25:57;;;;;;;70.97;37.97;;;12.60;99.90;;;;;;6383019;22;20422;-85
2023/02/12 11:28:22;;;;;;;69.67;34.20;;;12.60;99.90;;;;;;6384482;22;20386;-85
2023/02/12 11:31:16;;;;;;;70.67;36.07;;;12.60;99.90;;;;;;6382891;22;20375;-85
2023/02/12 11:33:49;;;;;;;66.30;34.70;;;12.60;99.90;;;;;;6412352;22;20148;-84
2023/02/12 11:36:24;;;;;;;64.87;36.30;;;12.60;99.90;;;;;;6410688;22;20433;-84
2023/02/12 11:38:59;;;;;;;57.43;32.37;;;12.60;99.90;;;;;;6411879;22;20433;-85
2023/02/12 11:41:35;;;;;;;67.30;36.10;;;12.60;99.90;;;;;;6381514;22;20729;-85
2023/02/12 11:44:08;;;;;;;73.43;37.23;;;12.60;99.90;;;;;;6383848;22;20378;-85
2023/02/12 11:46:44;;;;;;;68.37;38.93;;;12.60;99.90;;;;;;6383777;22;20400;-85
2023/02/12 11:49:22;;;;;;;82.60;39.10;;;12.60;99.90;;;;;;6413515;22;20362;-85
2023/02/12 11:51:48;;;;;;;62.93;36.07;;;12.60;99.90;;;;;;6412511;22;20941;-86
2023/02/12 11:54:27;;;;;;;74.67;40.27;;;12.70;99.90;;;;;;6382966;22;20439;-85
2023/02/12 11:56:54;;;;;;;72.63;37.17;;;12.70;99.90;;;;;;6411572;22;20461;-85
2023/02/12 11:59:49;;;;;;;74.97;37.70;;;12.80;99.90;;;;;;6411421;22;20367;-85
2023/02/12 12:02:37;;;;;;;75.70;38.83;;;12.90;99.90;;;;;;6378958;22;20382;-86
2023/02/12 12:05:10;;;;;;;68.07;37.97;;;13.00;95.60;;;;;;6412239;22;20383;-85
2023/02/12 12:07:58;;;;;;;70.37;37.50;;;13.00;11.20;;;;;;6384650;22;20403;-85
2023/02/12 12:10:43;;;;;;;75.43;39.50;;;13.10;1.00;;;;;;6382508;22;20385;-85
2023/02/12 12:13:23;;;;;;;69.90;36.93;;;13.10;1.00;;;;;;6383565;22;20387;-85
2023/02/12 12:22:19;;;;;;;70.30;36.97;;;13.20;1.00;;;;;;6411885;22;20435;-85
2023/02/12 12:24:52;;;;;;;62.93;36.53;;;13.20;1.00;;;;;;6384761;22;20450;-85
2023/02/12 12:30:35;;;;;;;67.40;35.53;;;13.20;1.00;;;;;;6410344;22;20428;-85
2023/02/12 12:33:14;;;;;;;69.10;36.40;;;13.30;1.00;;;;;;6382898;22;20384;-85
2023/02/12 12:35:57;;;;;;;65.20;37.27;;;13.30;1.00;;;;;;6381186;22;20400;-85
2023/02/12 12:38:39;;;;;;;68.80;34.70;;;13.50;1.00;;;;;;6382499;22;20501;-85
2023/02/12 12:41:25;;;;;;;63.97;36.10;;;13.60;1.00;;;;;;6410993;22;20362;-85
2023/02/12 12:44:19;;;;;;;62.47;34.00;;;13.80;1.00;;;;;;6382732;22;20448;-86
2023/02/12 12:47:03;;;;;;;60.07;33.27;;;13.80;1.00;;;;;;6381312;22;20402;-85
2023/02/12 12:49:41;;;;;;;65.47;33.27;;;14.00;1.00;;;;;;6383675;22;20375;-85
2023/02/12 12:52:29;;;;;;;58.20;32.17;;;14.00;1.00;;;;;;6411475;22;20372;-85
2023/02/12 12:55:21;;;;;;;59.13;33.53;;;14.00;1.00;;;;;;6411039;22;20364;-84
2023/02/12 12:58:23;;;;;;;59.93;33.43;;;13.90;1.00;;;;;;6380684;22;20417;-85
2023/02/12 13:01:09;;;;;;;57.30;31.97;;;13.90;1.00;;;;;;6382048;22;20386;-85
2023/02/12 13:04:32;;;;;;;58.37;32.90;;;13.80;1.00;;;;;;6410618;22;20371;-85
2023/02/12 13:07:45;;;;;;;56.67;32.30;;;13.70;1.00;;;;;;6227953;23;20478;-85
2023/02/12 13:10:31;;;;;;;60.07;31.50;;;13.60;1.00;;;;;;6108385;23;20889;-85
2023/02/12 13:13:07;;;;;;;56.83;31.23;;;13.50;1.00;;;;;;6245277;23;20396;-85
2023/02/12 13:15:47;;;;;;;56.17;31.17;;;13.40;1.00;;;;;;6371930;22;20404;-85
2023/02/12 13:18:12;;;;;;;56.53;34.43;;;13.40;1.00;;;;;;6384038;22;20415;-85
2023/02/12 13:20:48;;;;;;;57.30;31.30;;;13.30;1.00;;;;;;6412145;22;20445;-86
2023/02/12 13:23:29;;;;;;;57.53;32.73;;;13.30;1.00;;;;;;6411361;22;20126;-84
2023/02/12 13:26:03;;;;;;;51.00;29.90;;;13.20;1.00;;;;;;6376602;22;20482;-85
2023/02/12 13:28:37;;;;;;;49.50;29.60;;;13.20;1.00;;;;;;6376525;22;20396;-85
2023/02/12 13:31:07;;;;;;;46.47;27.63;;;13.20;1.00;;;;;;6402022;22;20375;-85
2023/02/12 13:33:58;;;;;;;47.97;27.30;;;13.20;1.00;;;;;;6403083;22;20356;-85
2023/02/12 13:36:45;;;;;;;45.13;27.50;;;13.20;1.00;;;;;;6404503;22;21019;-86
2023/02/12 13:39:31;;;;;;;47.67;27.70;;;13.20;1.00;;;;;;6404351;22;20381;-86
2023/02/12 13:42:06;;;;;;;46.50;28.43;;;13.20;1.00;;;;;;6407375;22;20352;-85
2023/02/12 13:44:58;;;;;;;53.00;29.23;;;13.10;1.00;;;;;;6411550;22;20351;-84
2023/02/12 13:47:43;;;;;;;39.07;24.73;;;13.10;1.00;;;;;;6382604;22;20702;-85
2023/02/12 13:50:56;;;;;;;43.40;24.70;;;13.10;1.00;;;;;;6408354;22;20373;-85
2023/02/12 13:53:50;;;;;;;46.93;23.83;;;13.10;1.00;;;;;;6382407;22;20707;-85
2023/02/12 13:56:48;;;;;;;38.33;24.37;;;13.00;1.00;;;;;;6379271;22;20717;-85
2023/02/12 13:59:30;;;;;;;37.07;24.20;;;13.00;1.00;;;;;;6406814;22;20424;-85
2023/02/12 14:01:55;;;;;;;41.27;23.90;;;13.00;1.00;;;;;;6379962;22;20367;-85
2023/02/12 14:04:42;;;;;;;36.97;21.97;;;13.00;1.00;;;;;;6381266;22;20375;-84
2023/02/12 14:07:11;;;;;;;38.53;22.97;;;13.10;1.00;;;;;;6378326;22;20394;-85
2023/02/12 14:09:57;;;;;;;42.30;24.87;;;13.00;1.00;;;;;;6403652;22;20439;-86
2023/02/12 14:12:25;;;;;;;40.60;24.73;;;12.90;1.00;;;;;;6371324;22;20371;-86
2023/02/12 14:14:53;;;;;;;37.10;23.13;;;12.90;1.00;;;;;;6372617;22;20379;-85
2023/02/12 14:17:41;;;;;;;39.07;23.40;;;12.80;1.00;;;;;;6401680;22;20416;-86
2023/02/12 14:20:25;;;;;;;37.03;23.00;;;12.70;1.00;;;;;;6373650;22;20762;-85
2023/02/12 14:23:13;;;;;;;38.97;24.77;;;12.70;1.00;;;;;;6374081;22;20727;-86
2023/02/12 14:26:04;;;;;;;46.10;26.13;;;12.60;1.00;;;;;;6404832;22;20383;-85
2023/02/12 14:28:29;;;;;;;38.80;22.70;;;12.60;1.00;;;;;;6406773;22;20356;-85
2023/02/12 14:31:19;;;;;;;44.90;25.87;;;12.60;1.00;;;;;;6376199;22;20379;-86
2023/02/12 14:33:50;;;;;;;46.77;27.03;;;12.60;1.00;;;;;;6404772;22;20160;-85
2023/02/12 14:36:55;;;;;;;47.47;27.97;;;12.60;1.00;;;;;;6404413;22;20420;-85
2023/02/12 14:39:21;;;;;;;50.00;28.40;;;12.50;1.00;;;;;;6398311;22;20379;-85
2023/02/12 14:45:01;;;;;;;45.27;27.33;;;12.30;1.00;;;;;;6379366;22;20290;-84
2023/02/12 14:47:32;;;;;;;52.23;28.03;;;12.30;1.00;;;;;;6375265;22;20443;-84
2023/02/12 14:50:18;;;;;;;44.60;26.90;;;12.40;1.00;;;;;;6376345;22;20399;-88
2023/02/12 14:52:54;;;;;;;54.90;29.93;;;12.40;1.00;;;;;;6376170;22;20383;-84
2023/02/12 14:55:26;;;;;;;49.17;28.73;;;12.40;1.00;;;;;;6407293;22;20396;-85
2023/02/12 14:58:05;;;;;;;55.47;29.07;;;12.50;1.00;;;;;;6381569;22;20754;-85
2023/02/12 15:00:44;;;;;;;48.23;28.90;;;12.40;1.00;;;;;;6380360;22;20386;-84
2023/02/12 15:03:27;;;;;;;51.07;28.80;;;12.40;1.00;;;;;;6406854;22;20356;-85
2023/02/12 15:06:33;;;;;;;;;;;;;;;;;;;;;
2023/02/12 15:09:28;;;;;;;45.13;26.00;;;12.30;1.00;;;;;;6408308;22;20375;-85
2023/02/12 15:12:16;;;;;;;45.23;26.70;;;12.20;1.00;;;;;;6406775;22;20378;-85
2023/02/12 15:15:05;;;;;;;52.40;27.27;;;12.10;1.00;;;;;;6405986;22;20365;-84
2023/02/12 15:17:59;;;;;;;44.60;26.97;;;12.10;1.00;;;;;;6406984;22;20880;-85
2023/02/12 15:20:53;;;;;;;42.70;26.03;;;12.00;1.00;;;;;;6309060;22;20386;-85
2023/02/12 15:23:43;;;;;;;46.90;27.50;;;12.00;1.00;;;;;;6377569;22;20388;-84
2023/02/12 15:26:32;;;;;;;44.47;26.80;;;12.00;1.00;;;;;;6378576;22;20383;-84
2023/02/12 15:29:29;;;;;;;50.33;27.87;;;11.90;1.00;;;;;;6379178;22;20476;-84
2023/02/12 15:32:01;;;;;;;53.20;29.67;;;11.90;1.00;;;;;;6403928;22;20371;-83
2023/02/12 15:34:40;;;;;;;56.57;32.57;;;11.80;1.00;;;;;;6376897;22;20378;-83
2023/02/12 15:37:17;;;;;;;50.63;32.40;;;11.80;1.00;;;;;;6378762;22;20411;-84
2023/02/12 15:40:07;;;;;;;56.50;30.90;;;11.80;1.00;;;;;;6408674;22;20751;-84
2023/02/12 15:43:18;;;;;;;73.53;33.27;;;11.80;1.00;;;;;;6377704;22;20376;-83
2023/02/12 15:45:50;;;;;;;53.43;30.40;;;11.70;34.50;;;;;;6406680;22;20404;-83
2023/02/12 15:48:33;;;;;;;60.10;31.07;;;11.70;63.40;;;;;;6377752;22;20375;-83
2023/02/12 15:51:54;;;;;;;57.93;30.57;;;11.70;99.40;;;;;;6379349;22;20371;-83
2023/02/12 16:05:20;;;;;;;55.43;31.90;;;11.50;99.90;;;;;;6126198;23;20387;-84
2023/02/12 16:08:32;;;;;;;;;;;;;;;;;;;;;
2023/02/12 16:18:31;;;;;;;61.50;33.47;;;11.30;99.90;;;;;;6299268;22;20447;-85
2023/02/12 16:34:25;;;;;;;58.90;33.40;;;11.20;1.00;;;;;;6123076;23;20430;-84
2023/02/12 16:36:53;;;;;;;61.13;34.03;;;11.20;1.00;;;;;;6157085;23;20441;-84
2023/02/12 16:39:39;;;;;;;66.70;34.90;;;11.20;1.00;;;;;;6272526;22;20378;-84
2023/02/12 16:42:18;;;;;;;56.53;32.13;;;11.20;1.00;;;;;;6378663;22;20443;-85
2023/02/12 16:48:54;;;;;;;;;;;;;;;;;;;;;
2023/02/12 16:51:33;;;;;;;58.87;30.47;;;11.20;1.00;;;;;;6392691;22;20390;-85
2023/02/12 16:54:03;;;;;;;59.87;32.20;;;11.20;1.00;;;;;;6380029;22;20453;-85
2023/02/12 16:56:46;;;;;;;59.40;32.83;;;11.20;1.00;;;;;;6400778;22;20426;-84
2023/02/12 16:59:17;;;;;;;65.57;34.97;;;11.20;1.00;;;;;;6375783;22;20439;-84
2023/02/12 17:02:15;;;;;;;126.13;58.13;;;11.20;1.00;;;;;;6404011;22;20833;-85
2023/02/12 17:05:21;;;;;;;96.43;49.27;;;11.20;1.00;;;;;;6376945;22;20567;-84
2023/02/12 17:07:48;;;;;;;57.97;31.07;;;11.20;1.00;;;;;;6405029;22;20675;-85
2023/02/12 17:10:18;;;;;;;76.10;36.97;;;11.20;1.00;;;;;;6406572;22;20533;-84
2023/02/12 17:13:13;;;;;;;68.97;36.10;;;11.20;1.00;;;;;;6376668;22;20401;-84
2023/02/12 17:16:00;;;;;;;56.57;31.10;;;11.10;1.00;;;;;;6351036;22;20505;-84
2023/02/12 17:18:37;;;;;;;56.67;30.83;;;11.10;1.00;;;;;;6405916;22;20423;-84
2023/02/12 17:21:38;;;;;;;55.83;31.40;;;11.10;1.00;;;;;;6380425;22;20459;-84
2023/02/12 17:24:19;;;;;;;59.87;31.10;;;11.10;1.00;;;;;;6406261;22;20378;-84
2023/02/12 17:26:51;;;;;;;52.10;28.47;;;11.10;1.00;;;;;;6378478;22;20407;-85
2023/02/12 17:34:12;;;;;;;54.53;28.97;;;11.00;1.00;;;;;;6217452;23;20446;-85
2023/02/12 17:37:10;;;;;;;55.37;28.53;;;11.00;1.00;;;;;;6130029;23;20384;-85
2023/02/12 17:40:53;;;;;;;52.37;27.90;;;10.90;1.00;;;;;;6091633;23;20454;-85
2023/02/12 17:44:10;;;;;;;56.77;28.93;;;10.80;1.00;;;;;;6008401;23;20874;-85
2023/02/12 17:53:32;;;;;;;47.30;28.50;;;10.60;22.30;;;;;;6338260;22;20876;-85
2023/02/12 17:56:14;;;;;;;50.83;28.87;;;10.60;94.60;;;;;;6378738;22;20395;-85
2023/02/12 17:58:56;;;;;;;54.40;27.50;;;10.50;99.90;;;;;;6378567;22;20423;-85
2023/02/12 18:01:46;;;;;;;54.77;30.50;;;10.40;99.90;;;;;;6376107;22;20386;-85
2023/02/12 18:05:04;;;;;;;53.00;30.43;;;10.40;99.90;;;;;;6381107;22;20401;-84
2023/02/12 18:08:02;;;;;;;;;;;;;;;;;;;;;
2023/02/12 18:14:17;;;;;;;;;;;;;;;;;;;;;
2023/02/12 18:16:59;;;;;;;;;;;;;;;;;;;;;
2023/02/12 18:23:28;;;;;;;53.30;30.20;;;10.10;1.00;;;;;;6408518;22;20494;-86
2023/02/12 18:26:48;;;;;;;58.20;31.50;;;10.00;1.00;;;;;;6377593;22;20511;-85
2023/02/12 18:29:31;;;;;;;56.27;31.50;;;10.00;1.00;;;;;;6407363;22;20413;-85
2023/02/12 18:32:22;;;;;;;95.90;35.23;;;9.90;1.00;;;;;;6407620;22;20371;-84
2023/02/12 18:38:11;;;;;;;;;;;;;;;;;;;;;
2023/02/12 18:47:47;;;;;;;51.83;27.87;;;9.70;8.40;;;;;;6256174;22;20386;-85
2023/02/12 18:53:32;;;;;;;60.33;29.43;;;9.60;99.90;;;;;;6402704;22;20371;-84
2023/02/12 18:56:59;;;;;;;48.37;27.43;;;9.50;99.90;;;;;;6405611;22;20391;-84
2023/02/12 19:00:19;;;;;;;51.87;31.17;;;9.50;99.90;;;;;;6357488;22;20426;-85
2023/02/12 19:09:57;;;;;;;53.33;30.77;;;9.40;99.90;;;;;;6343782;22;20407;-83
2023/02/12 19:16:26;;;;;;;;;;;;;;;;;;;;;
2023/02/12 19:36:35;;;;;;;61.20;33.57;;;9.30;99.90;;;;;;6282935;22;20219;-84
2023/02/12 20:17:05;;;;;;;;;;;;;;;;;;;;;
2023/02/12 20:19:57;;;;;;;52.88;31.45;;;8.70;1.00;;;;;;6374916;22;20627;-85
2023/02/12 20:23:16;;;;;;;57.93;31.50;;;8.70;1.00;;;;;;6345796;22;20154;-88
2023/02/12 20:26:19;;;;;;;;;;;;;;;;;;;;;
2023/02/12 20:29:10;;;;;;;54.27;29.07;;;8.70;1.00;;;;;;6367570;22;20391;-85
2023/02/12 20:32:28;;;;;;;55.72;30.80;;;8.60;1.00;;;;;;6323173;22;20942;-86
2023/02/12 20:35:14;;;;;;;59.67;31.80;;;8.60;1.00;;;;;;6366923;22;20233;-85
2023/02/12 20:37:59;;;;;;;54.15;29.00;;;8.60;1.00;;;;;;6318930;22;20663;-87
2023/02/12 20:44:20;;;;;;;65.75;33.15;;;8.50;1.00;;;;;;6303172;22;20158;-85
2023/02/12 20:47:01;;;;;;;;;;;;;;;;;;;;;
2023/02/12 20:49:52;;;;;;;64.43;34.60;;;8.50;1.00;;;;;;6374826;22;20160;-85
2023/02/12 20:59:01;;;;;;;54.85;29.27;;;8.30;1.00;;;;;;6401899;22;20207;-85
2023/02/12 21:04:51;;;;;;;;;;;;;;;;;;;;;
2023/02/12 21:10:58;;;;;;;;;;;;;;;;;;;;;
2023/02/12 21:46:16;;;;;;;58.92;32.13;;;7.80;99.90;;;;;;6040196;23;20192;-84
2023/02/12 21:53:26;;;;;;;;;;;;;;;;;;;;;
2023/02/12 21:59:17;;;;;;;68.57;36.13;;;7.70;99.90;;;;;;6097799;23;20207;-85
2023/02/12 22:06:56;;;;;;;;;;;;;;;;;;;;;
2023/02/12 22:10:08;;;;;;;57.92;31.77;;;7.50;1.00;;;;;;6173794;23;20499;-84
2023/02/12 22:20:10;;;;;;;51.05;24.98;;;7.30;99.90;;;;;;5958420;23;20168;-84
2023/02/12 22:36:08;;;;;;;27.77;17.27;;;7.50;1.00;;;;;;6158585;23;20889;-83
2023/02/12 22:39:31;;;;;;;32.13;17.20;;;7.50;1.00;;;;;;6206669;23;20266;-84
2023/02/12 22:42:18;;;;;;;34.00;18.45;;;7.60;99.90;;;;;;6092733;23;20160;-83